Time;durP1;ratioP1;P1;durP2;ratioP2;P2;SDS_P1;SDS_P2;PMS_P1;PMS_P2;Temp;Humidity;BMP_temperature;BMP_pressure;BME280_temperature;BME280_humidity;BME280_pressure;Samples;Min_cycle;Max_cycle;Signal;HPM_P1;HPM_P2
2022/02/09 00:08:23;;;;;;;7.97;2.00;;;7.20;99.90;;;;;;4815273;29;20214;-93
2022/02/09 00:18:56;;;;;;;11.47;1.90;;;6.80;99.90;;;;;;4867439;29;20263;-95
2022/02/09 01:57:38;;;;;;;11.93;2.17;;;7.10;99.90;;;;;;5024447;28;20235;-78
2022/02/09 02:00:12;;;;;;;18.07;2.07;;;7.10;99.90;;;;;;5032019;28;20216;-80
2022/02/09 02:02:41;;;;;;;12.90;2.10;;;7.10;99.90;;;;;;5035036;28;20707;-79
2022/02/09 02:05:09;;;;;;;13.10;2.13;;;7.70;99.90;;;;;;5031756;28;20343;-79
2022/02/09 02:07:46;;;;;;;20.90;2.63;;;6.40;99.90;;;;;;5032016;28;20204;-80
2022/02/09 02:10:16;;;;;;;13.60;2.57;;;7.20;99.90;;;;;;5030560;28;20269;-80
2022/02/09 02:13:04;;;;;;;25.00;3.00;;;7.20;99.90;;;;;;5032079;28;20243;-80
2022/02/09 02:18:26;;;;;;;10.17;2.07;;;7.20;99.90;;;;;;5045317;28;20224;-80
2022/02/09 02:21:05;;;;;;;11.57;2.50;;;7.30;99.90;;;;;;5040752;28;20186;-80
2022/02/09 02:23:54;;;;;;;8.87;2.00;;;7.30;99.90;;;;;;5026675;28;20257;-81
2022/02/09 02:26:39;;;;;;;11.33;1.77;;;7.30;99.90;;;;;;5048506;28;20245;-80
2022/02/09 02:29:31;;;;;;;11.53;1.80;;;7.40;99.90;;;;;;5032164;28;20207;-80
2022/02/09 02:32:33;;;;;;;7.67;1.60;;;7.70;99.90;;;;;;5042756;28;20217;-79
2022/02/09 02:43:51;;;;;;;14.77;2.30;;;7.60;99.90;;;;;;5017299;28;20660;-80
2022/02/09 02:46:41;;;;;;;16.13;2.93;;;7.60;99.90;;;;;;5048328;28;20298;-80
2022/02/09 02:57:41;;;;;;;10.87;2.20;;;7.70;99.90;;;;;;5049137;28;20216;-81
2022/02/09 03:11:34;;;;;;;9.57;2.17;;;7.60;99.90;;;;;;5045680;28;20255;-78
2022/02/09 03:14:10;;;;;;;15.33;2.00;;;7.60;99.90;;;;;;5033348;28;20202;-79
2022/02/09 03:16:41;;;;;;;11.43;2.03;;;7.60;99.90;;;;;;5054688;28;20190;-80
2022/02/09 03:19:32;;;;;;;17.13;2.70;;;7.60;99.90;;;;;;5053775;28;20201;-79
2022/02/09 03:22:15;;;;;;;7.17;1.63;;;7.60;99.90;;;;;;5050558;28;20260;-80
2022/02/09 03:25:02;;;;;;;9.70;1.70;;;7.60;99.90;;;;;;5033610;28;20295;-80
2022/02/09 03:42:15;;;;;;;7.83;1.37;;;7.20;99.90;;;;;;5049474;28;20649;-80
2022/02/09 03:43:05;;;;;;;9.20;1.90;;;7.60;99.90;;;;;;5035581;28;20296;-80
2022/02/09 03:48:59;;;;;;;9.20;1.73;;;7.80;99.90;;;;;;5033898;28;20649;-79
2022/02/09 03:51:54;;;;;;;2.43;0.90;;;7.70;99.90;;;;;;5042583;28;20196;-80
2022/02/09 03:54:34;;;;;;;8.03;1.40;;;7.70;99.90;;;;;;5050316;28;20286;-80
2022/02/09 04:00:12;;;;;;;11.60;1.77;;;7.70;99.90;;;;;;5025294;28;20654;-80
2022/02/09 04:03:09;;;;;;;4.60;1.23;;;7.70;99.90;;;;;;5040281;28;20566;-79
2022/02/09 04:10:00;;;;;;;5.27;1.73;;;7.70;99.90;;;;;;5033677;28;20209;-79
2022/02/09 04:13:27;;;;;;;3.30;1.27;;;7.30;99.90;;;;;;5032278;28;20224;-80
2022/02/09 04:17:08;;;;;;;8.17;1.60;;;7.60;99.90;;;;;;5045358;28;20206;-80
2022/02/09 04:35:59;;;;;;;14.47;2.00;;;7.50;99.90;;;;;;5008786;28;20218;-79
2022/02/09 04:37:02;;;;;;;3.40;1.40;;;7.40;99.90;;;;;;5001701;28;20319;-79
2022/02/09 04:39:43;;;;;;;8.77;1.70;;;7.40;99.90;;;;;;5018100;28;20291;-80
2022/02/09 04:45:21;;;;;;;4.70;1.50;;;7.30;99.90;;;;;;4982016;28;20361;-80
2022/02/09 04:47:56;;;;;;;2.30;1.10;;;6.50;99.90;;;;;;4991769;28;20205;-79
2022/02/09 04:50:27;;;;;;;3.97;1.17;;;7.30;99.90;;;;;;4992044;28;20266;-80
2022/02/09 04:53:19;;;;;;;5.83;1.30;;;7.30;99.90;;;;;;4990963;28;20216;-80
2022/02/09 04:56:01;;;;;;;12.60;2.10;;;7.30;99.90;;;;;;5023341;28;20221;-81
2022/02/09 04:58:45;;;;;;;4.87;1.20;;;7.30;99.90;;;;;;5044073;28;20264;-79
2022/02/09 05:01:37;;;;;;;6.17;1.37;;;7.30;99.90;;;;;;5036990;28;20203;-80
2022/02/09 05:04:20;;;;;;;4.13;1.10;;;7.30;99.90;;;;;;5032109;28;20240;-79
2022/02/09 05:18:10;;;;;;;3.77;1.10;;;7.20;99.90;;;;;;5053437;28;20250;-80
2022/02/09 05:21:20;;;;;;;5.73;1.63;;;7.20;99.90;;;;;;5049761;28;20194;-81
2022/02/09 05:24:02;;;;;;;10.43;1.90;;;7.20;99.90;;;;;;5046578;28;20653;-80
2022/02/09 05:26:39;;;;;;;5.13;1.50;;;7.20;99.90;;;;;;5048004;28;20194;-80
2022/02/09 05:29:13;;;;;;;6.60;2.00;;;7.20;99.90;;;;;;5031223;28;20629;-80
2022/02/09 05:31:41;;;;;;;3.90;1.33;;;7.20;99.90;;;;;;5054925;28;20648;-80
2022/02/09 05:34:09;;;;;;;8.03;1.83;;;7.10;99.90;;;;;;5032033;28;20606;-81
2022/02/09 05:36:39;;;;;;;9.60;2.33;;;7.20;99.90;;;;;;5057208;28;20190;-80
2022/02/09 05:39:06;;;;;;;19.00;2.80;;;7.20;99.90;;;;;;5031213;28;20320;-80
2022/02/09 05:41:37;;;;;;;18.10;3.47;;;7.20;99.90;;;;;;5040682;28;20198;-80
2022/02/09 05:44:04;;;;;;;12.57;2.53;;;7.20;99.90;;;;;;5049185;28;20534;-81
2022/02/09 05:47:02;;;;;;;21.03;3.57;;;7.20;99.90;;;;;;5050029;28;20644;-81
2022/02/09 05:49:36;;;;;;;13.57;2.30;;;7.10;99.90;;;;;;5048655;28;20687;-81
2022/02/09 05:52:14;;;;;;;11.67;2.70;;;7.10;99.90;;;;;;5026404;28;20561;-82
2022/02/09 05:55:02;;;;;;;7.20;1.90;;;7.10;99.90;;;;;;5038472;28;20197;-80
2022/02/09 05:57:45;;;;;;;5.53;1.80;;;7.10;99.90;;;;;;5045746;28;20673;-79
2022/02/09 06:00:14;;;;;;;10.07;1.73;;;7.10;99.90;;;;;;5047872;28;20225;-79
2022/02/09 06:02:51;;;;;;;5.53;1.60;;;7.10;99.90;;;;;;5044177;28;20229;-79
2022/02/09 06:05:21;;;;;;;9.53;2.17;;;7.20;99.90;;;;;;5031433;28;20584;-80
2022/02/09 06:07:51;;;;;;;7.40;2.03;;;7.20;99.90;;;;;;5050360;28;20190;-80
2022/02/09 06:10:26;;;;;;;3.83;1.67;;;7.20;99.90;;;;;;5048340;28;20202;-79
2022/02/09 06:13:06;;;;;;;6.03;2.10;;;7.20;99.90;;;;;;5029821;28;20661;-79
2022/02/09 06:15:58;;;;;;;2.97;1.43;;;7.20;99.90;;;;;;5045172;28;20201;-79
2022/02/09 06:21:18;;;;;;;2.07;1.20;;;7.20;99.90;;;;;;5048493;28;20284;-80
2022/02/09 06:23:48;;;;;;;0.87;0.87;;;7.20;99.90;;;;;;5048877;28;20217;-80
2022/02/09 06:26:18;;;;;;;1.77;1.00;;;7.30;99.90;;;;;;5058166;28;20225;-78
2022/02/09 06:28:47;;;;;;;3.43;1.50;;;7.30;99.90;;;;;;5018985;28;20213;-79
2022/02/09 06:31:15;;;;;;;3.93;1.37;;;6.30;99.90;;;;;;5049396;28;20281;-80
2022/02/09 06:33:46;;;;;;;3.10;1.60;;;6.60;99.90;;;;;;5034113;28;20597;-79
2022/02/09 06:36:21;;;;;;;5.27;1.30;;;7.30;99.90;;;;;;5027137;28;20213;-80
2022/02/09 06:38:55;;;;;;;3.90;1.97;;;7.40;99.90;;;;;;5031394;28;20228;-81
2022/02/09 06:41:22;;;;;;;4.70;2.13;;;7.30;99.90;;;;;;5047889;28;20248;-80
2022/02/09 06:43:54;;;;;;;4.13;1.87;;;7.20;99.90;;;;;;5030454;28;20259;-80
2022/02/09 06:46:32;;;;;;;4.13;1.77;;;6.40;99.90;;;;;;5047210;28;20233;-80
2022/02/09 06:49:06;;;;;;;2.43;1.80;;;8.30;99.90;;;;;;5045349;28;20277;-81
2022/02/09 06:51:36;;;;;;;2.80;1.97;;;6.90;99.90;;;;;;5030589;28;20205;-81
2022/02/09 06:54:09;;;;;;;2.37;1.70;;;7.20;99.90;;;;;;5030936;28;20213;-80
2022/02/09 06:57:00;;;;;;;6.47;2.40;;;6.30;99.90;;;;;;5048845;28;20280;-80
2022/02/09 06:59:41;;;;;;;12.80;4.30;;;7.20;99.90;;;;;;5029222;28;20688;-82
2022/02/09 07:02:14;;;;;;;5.27;2.97;;;8.20;99.90;;;;;;5041908;28;20535;-81
2022/02/09 07:04:49;;;;;;;10.23;3.60;;;6.90;99.90;;;;;;5030355;28;20669;-81
2022/02/09 07:07:18;;;;;;;10.30;4.00;;;7.20;99.90;;;;;;5031137;28;20239;-80
2022/02/09 07:09:49;;;;;;;7.50;3.17;;;7.20;99.90;;;;;;5047926;28;20194;-81
2022/02/09 07:12:18;;;;;;;7.43;3.00;;;7.10;99.90;;;;;;5048043;28;20617;-81
2022/02/09 07:14:46;;;;;;;5.67;2.73;;;6.90;99.90;;;;;;5037099;28;20205;-80
2022/02/09 07:17:13;;;;;;;3.03;1.97;;;7.30;99.90;;;;;;5056386;28;20194;-80
2022/02/09 07:19:43;;;;;;;4.67;2.10;;;6.90;99.90;;;;;;5037614;28;20220;-80
2022/02/09 07:22:15;;;;;;;4.03;2.40;;;7.40;99.90;;;;;;5043353;28;20534;-82
2022/02/09 07:24:43;;;;;;;3.77;2.30;;;7.40;99.90;;;;;;5037744;28;20202;-79
2022/02/09 07:27:26;;;;;;;5.17;2.30;;;7.50;99.90;;;;;;5047551;28;20305;-81
2022/02/09 07:29:53;;;;;;;3.63;2.00;;;7.60;99.90;;;;;;5047354;28;20213;-80
2022/02/09 07:32:21;;;;;;;3.57;2.30;;;7.60;99.90;;;;;;5048367;28;20198;-80
2022/02/09 07:34:53;;;;;;;2.77;2.00;;;7.60;99.90;;;;;;5051715;28;20617;-80
2022/02/09 07:37:20;;;;;;;4.32;2.40;;;7.70;99.90;;;;;;5050786;28;20523;-81
2022/02/09 07:39:50;;;;;;;3.87;2.23;;;7.30;99.90;;;;;;5032772;28;20228;-82
2022/02/09 07:42:28;;;;;;;3.27;1.97;;;7.70;99.90;;;;;;5051473;28;20673;-81
2022/02/09 07:45:24;;;;;;;4.03;2.03;;;7.80;99.90;;;;;;5030631;28;20646;-80
2022/02/09 07:48:24;;;;;;;4.80;3.00;;;7.80;99.90;;;;;;5048429;28;20210;-82
2022/02/09 07:51:11;;;;;;;4.50;2.33;;;7.90;99.90;;;;;;5048585;28;20614;-80
2022/02/09 07:53:48;;;;;;;5.17;2.30;;;7.90;99.90;;;;;;5051445;28;20202;-80
2022/02/09 07:56:18;;;;;;;3.87;2.03;;;7.90;99.90;;;;;;5046649;28;20687;-82
2022/02/09 07:58:46;;;;;;;6.57;2.37;;;7.90;99.90;;;;;;5032789;28;20210;-80
2022/02/09 08:01:13;;;;;;;6.87;2.37;;;7.90;99.90;;;;;;5046016;28;20447;-80
2022/02/09 08:03:41;;;;;;;7.13;2.33;;;7.90;99.90;;;;;;5050043;28;20432;-81
2022/02/09 08:06:12;;;;;;;8.97;2.70;;;7.90;99.90;;;;;;5032568;28;20208;-80
2022/02/09 08:08:42;;;;;;;10.07;3.92;;;7.80;99.90;;;;;;5032091;28;20934;-81
2022/02/09 08:11:16;;;;;;;8.15;3.63;;;8.00;99.90;;;;;;5045156;28;20535;-80
2022/02/09 08:33:40;;;;;;;12.87;4.37;;;8.10;99.90;;;;;;4989121;28;20624;-80
2022/02/09 08:36:19;;;;;;;12.93;4.70;;;8.10;99.90;;;;;;5050008;28;20194;-80
2022/02/09 08:38:52;;;;;;;20.70;6.63;;;8.10;99.90;;;;;;5053820;28;20213;-81
2022/02/09 08:41:28;;;;;;;25.03;7.50;;;8.10;99.90;;;;;;5043931;28;20193;-82
2022/02/09 08:44:04;;;;;;;19.30;6.20;;;7.20;99.90;;;;;;5050060;28;20668;-81
2022/02/09 08:46:41;;;;;;;14.20;5.40;;;8.00;99.90;;;;;;5031604;28;20287;-81
2022/02/09 08:49:08;;;;;;;16.73;4.57;;;8.10;99.90;;;;;;5052453;28;20247;-81
2022/02/09 08:51:41;;;;;;;16.93;4.97;;;8.00;99.90;;;;;;5039266;28;20208;-81
2022/02/09 08:54:11;;;;;;;21.70;5.80;;;8.10;99.90;;;;;;5052338;28;20739;-81
2022/02/09 08:56:39;;;;;;;14.60;4.80;;;8.10;99.90;;;;;;5053267;28;20205;-81
2022/02/09 08:59:09;;;;;;;10.50;4.10;;;8.20;99.90;;;;;;5050016;28;20328;-81
2022/02/09 09:01:42;;;;;;;12.17;3.83;;;8.20;99.90;;;;;;5043286;28;20198;-79
2022/02/09 09:04:18;;;;;;;13.70;4.13;;;8.20;99.90;;;;;;5050074;28;20228;-81
2022/02/09 09:06:52;;;;;;;9.80;3.77;;;8.20;99.90;;;;;;5032525;28;20213;-80
2022/02/09 09:09:29;;;;;;;15.80;3.77;;;8.20;99.90;;;;;;5049635;28;20723;-81
2022/02/09 09:17:37;;;;;;;6.93;2.17;;;7.90;99.90;;;;;;5055875;28;20203;-81
2022/02/09 10:02:49;;;;;;;4.53;2.33;;;8.40;99.90;;;;;;5048842;28;20205;-81
2022/02/09 10:33:58;;;;;;;4.50;2.78;;;8.90;99.90;;;;;;5042456;28;20444;-81
2022/02/09 10:36:25;;;;;;;5.27;3.67;;;8.90;99.90;;;;;;5047802;28;20199;-82
2022/02/09 10:39:06;;;;;;;5.23;3.10;;;9.00;99.90;;;;;;5044393;28;20676;-82
2022/02/09 10:41:39;;;;;;;4.37;2.97;;;9.00;99.90;;;;;;5027623;28;20674;-81
2022/02/09 10:44:08;;;;;;;3.07;2.23;;;9.10;99.90;;;;;;5046806;28;20229;-81
2022/02/09 10:46:46;;;;;;;2.77;2.07;;;9.10;99.90;;;;;;5045279;28;20231;-82
2022/02/09 10:49:20;;;;;;;3.83;2.07;;;9.20;99.90;;;;;;5029826;28;20336;-81
2022/02/09 10:51:51;;;;;;;2.37;1.80;;;9.20;99.90;;;;;;5040868;28;20194;-81
2022/02/09 10:54:21;;;;;;;1.50;1.40;;;9.30;99.90;;;;;;5034226;28;20190;-81
2022/02/09 10:56:54;;;;;;;1.30;1.20;;;9.30;99.90;;;;;;5019954;28;20215;-79
2022/02/09 10:59:23;;;;;;;1.37;1.23;;;9.40;99.90;;;;;;5044116;28;20673;-81
2022/02/09 11:01:51;;;;;;;1.67;1.50;;;9.40;99.90;;;;;;5027416;28;20225;-80
2022/02/09 11:04:22;;;;;;;2.77;1.90;;;9.50;99.90;;;;;;5017063;28;20446;-80
2022/02/09 11:06:51;;;;;;;4.73;1.93;;;9.80;99.90;;;;;;5030411;28;20199;-79
2022/02/09 11:09:19;;;;;;;2.93;2.13;;;9.40;99.90;;;;;;5038729;28;20294;-80
2022/02/09 11:11:48;;;;;;;3.03;1.50;;;9.60;99.90;;;;;;5033935;28;20239;-81
2022/02/09 11:14:17;;;;;;;3.03;2.10;;;9.60;99.90;;;;;;5052861;28;20204;-80
2022/02/09 11:16:46;;;;;;;1.80;1.70;;;9.70;99.90;;;;;;5048465;28;20195;-81
2022/02/09 11:19:16;;;;;;;4.20;2.30;;;9.70;99.90;;;;;;5046262;28;20700;-81
2022/02/09 11:24:44;;;;;;;3.27;1.90;;;9.80;99.90;;;;;;5041784;28;20194;-80
2022/02/09 11:27:16;;;;;;;2.67;2.30;;;9.90;99.90;;;;;;5039389;28;20647;-80
2022/02/09 11:29:57;;;;;;;4.17;3.10;;;9.90;99.90;;;;;;5029913;28;20207;-80
2022/02/09 11:32:37;;;;;;;4.40;2.70;;;10.00;99.90;;;;;;5054545;28;20266;-79
2022/02/09 11:35:41;;;;;;;4.23;2.63;;;10.00;99.90;;;;;;5044314;28;20205;-79
2022/02/09 11:38:23;;;;;;;4.13;3.13;;;9.70;99.90;;;;;;5031992;28;20212;-79
2022/02/09 11:40:56;;;;;;;3.70;3.40;;;10.00;99.90;;;;;;5032129;28;20566;-79
2022/02/09 11:43:53;;;;;;;6.00;4.13;;;10.10;99.90;;;;;;5033399;28;20642;-79
2022/02/09 11:47:22;;;;;;;6.83;4.87;;;10.10;99.90;;;;;;5051370;28;20337;-79
2022/02/09 11:50:37;;;;;;;4.03;2.70;;;10.20;99.90;;;;;;5042271;28;20553;-81
2022/02/09 11:59:07;;;;;;;3.50;3.20;;;10.20;99.90;;;;;;5010484;28;20215;-79
2022/02/09 12:11:29;;;;;;;2.10;1.90;;;10.40;99.90;;;;;;5008189;28;20196;-80
2022/02/09 12:15:09;;;;;;;4.73;2.70;;;10.50;99.90;;;;;;4938004;29;20214;-79
2022/02/09 12:20:36;;;;;;;4.40;2.97;;;10.50;99.90;;;;;;4953601;28;20228;-82
2022/02/09 12:23:13;;;;;;;3.40;3.03;;;10.50;99.90;;;;;;4954250;28;20281;-82
2022/02/09 12:25:44;;;;;;;2.00;1.80;;;10.50;99.90;;;;;;4952299;28;20361;-80
2022/02/09 12:28:37;;;;;;;2.50;2.17;;;10.50;99.90;;;;;;4953855;28;20213;-80
2022/02/09 12:31:11;;;;;;;3.97;2.00;;;10.50;99.90;;;;;;4970488;28;20215;-82
2022/02/09 12:33:43;;;;;;;1.87;1.57;;;10.50;99.90;;;;;;4974535;28;20641;-81
2022/02/09 12:36:21;;;;;;;1.40;1.27;;;10.40;99.90;;;;;;4977455;28;20675;-81
2022/02/09 12:38:59;;;;;;;2.03;1.50;;;10.40;99.90;;;;;;4970105;28;20223;-81
2022/02/09 12:41:26;;;;;;;1.97;1.60;;;10.40;99.90;;;;;;4943451;28;20678;-83
2022/02/09 12:43:58;;;;;;;2.70;1.53;;;10.40;99.90;;;;;;4968119;28;20212;-80
2022/02/09 12:46:28;;;;;;;1.80;1.43;;;10.40;99.90;;;;;;4969384;28;20250;-80
2022/02/09 12:48:56;;;;;;;2.13;1.67;;;9.80;99.90;;;;;;4970280;28;20270;-79
2022/02/09 12:51:28;;;;;;;2.00;1.37;;;10.40;99.90;;;;;;5022566;28;20220;-81
2022/02/09 12:53:56;;;;;;;1.57;1.47;;;10.40;99.90;;;;;;5052117;28;20213;-81
2022/02/09 12:56:31;;;;;;;2.87;1.83;;;10.40;99.90;;;;;;5051449;28;20204;-80
2022/02/09 12:59:10;;;;;;;5.93;1.70;;;10.50;99.90;;;;;;5044961;28;20219;-80
2022/02/09 13:01:45;;;;;;;2.27;1.50;;;10.40;99.90;;;;;;5035958;28;20229;-81
2022/02/09 13:04:28;;;;;;;1.77;1.20;;;10.50;99.90;;;;;;5045493;28;20207;-80
2022/02/09 13:06:58;;;;;;;6.53;2.30;;;10.50;99.90;;;;;;5033536;28;20205;-82
2022/02/09 13:09:26;;;;;;;2.47;1.50;;;10.50;99.90;;;;;;5015295;28;20213;-81
2022/02/09 13:11:54;;;;;;;4.27;1.70;;;10.50;99.90;;;;;;5050430;28;20223;-81
2022/02/09 13:14:30;;;;;;;1.70;1.30;;;10.50;99.90;;;;;;5050476;28;20313;-81
2022/02/09 13:17:25;;;;;;;2.20;1.60;;;10.50;99.90;;;;;;5039466;28;20195;-81
2022/02/09 13:23:24;;;;;;;2.33;1.50;;;10.50;99.90;;;;;;5048697;28;20196;-81
2022/02/09 14:13:23;;;;;;;1.57;1.47;;;10.70;99.90;;;;;;5046220;28;20243;-81
2022/02/09 14:47:39;;;;;;;2.43;1.60;;;11.20;99.90;;;;;;5049255;28;20241;-80
2022/02/09 14:53:21;;;;;;;1.97;1.63;;;10.60;99.90;;;;;;4998090;28;20298;-81
2022/02/09 14:56:09;;;;;;;2.43;1.77;;;10.60;99.90;;;;;;5045203;28;20197;-80
2022/02/09 14:58:41;;;;;;;2.43;1.70;;;10.50;99.90;;;;;;5058199;28;20206;-82
2022/02/09 15:01:45;;;;;;;2.87;2.00;;;10.50;99.90;;;;;;5053492;28;20290;-80
2022/02/09 15:07:05;;;;;;;3.10;1.80;;;10.50;99.90;;;;;;5025709;28;20671;-80
2022/02/09 15:09:44;;;;;;;7.17;2.00;;;9.70;99.90;;;;;;5058639;28;20209;-80
2022/02/09 15:12:31;;;;;;;4.27;2.27;;;10.40;99.90;;;;;;5042557;28;20262;-81
2022/02/09 15:15:40;;;;;;;4.97;2.40;;;10.40;99.90;;;;;;5043332;28;20233;-81
2022/02/09 15:18:38;;;;;;;4.50;2.10;;;10.40;99.90;;;;;;5057145;28;20687;-80
2022/02/09 15:21:25;;;;;;;2.47;2.17;;;10.30;99.90;;;;;;5032099;28;20287;-80
2022/02/09 15:24:00;;;;;;;3.07;1.80;;;10.40;99.90;;;;;;5034726;28;20490;-81
2022/02/09 15:26:33;;;;;;;11.40;2.43;;;10.30;99.90;;;;;;5057969;28;20199;-81
2022/02/09 15:29:15;;;;;;;1.90;1.70;;;10.30;99.90;;;;;;5028832;28;20213;-81
2022/02/09 15:31:52;;;;;;;2.87;2.20;;;10.30;99.90;;;;;;5034501;28;20255;-80
2022/02/09 15:34:32;;;;;;;3.07;2.10;;;10.00;99.90;;;;;;5034317;28;20212;-82
2022/02/09 15:37:10;;;;;;;3.60;1.83;;;10.20;99.90;;;;;;5052475;28;20596;-81
2022/02/09 15:39:43;;;;;;;2.80;2.10;;;10.20;99.90;;;;;;5035303;28;20210;-80
2022/02/09 15:42:51;;;;;;;3.37;2.17;;;10.30;99.90;;;;;;5053720;28;20706;-81
2022/02/09 15:59:39;;;;;;;4.47;2.43;;;10.20;99.90;;;;;;5032263;28;20208;-81
2022/02/09 16:08:48;;;;;;;5.07;2.20;;;10.20;99.90;;;;;;5034445;28;20259;-81
2022/02/09 16:16:24;;;;;;;2.73;2.30;;;10.50;99.90;;;;;;5029003;28;20227;-80
2022/02/09 16:24:24;;;;;;;3.13;2.50;;;10.10;99.90;;;;;;5052040;28;20224;-80
2022/02/09 16:38:17;;;;;;;6.97;3.10;;;10.10;99.90;;;;;;4971395;28;20728;-81
2022/02/09 16:46:35;;;;;;;6.47;2.90;;;10.10;99.90;;;;;;5027066;28;20243;-81
2022/02/09 16:49:04;;;;;;;4.27;2.87;;;10.10;99.90;;;;;;5020502;28;20205;-80
2022/02/09 16:51:41;;;;;;;2.77;2.50;;;10.10;99.90;;;;;;5024834;28;20223;-80
2022/02/09 16:54:25;;;;;;;2.83;2.53;;;10.00;99.90;;;;;;5042673;28;20195;-83
2022/02/09 17:22:14;;;;;;;6.07;3.30;;;9.40;99.90;;;;;;4854147;29;21000;-82
2022/02/09 17:24:56;;;;;;;5.30;3.23;;;10.00;99.90;;;;;;4855886;29;20220;-81
2022/02/09 17:27:29;;;;;;;5.50;3.10;;;10.00;99.90;;;;;;4964682;28;20221;-82
2022/02/09 17:33:13;;;;;;;5.73;3.63;;;10.00;99.90;;;;;;4960880;28;20237;-80
2022/02/09 17:38:49;;;;;;;3.83;2.60;;;10.00;99.90;;;;;;4970553;28;20750;-81
2022/02/09 17:53:25;;;;;;;5.90;3.77;;;10.00;99.90;;;;;;5009877;28;20291;-79
2022/02/09 17:56:00;;;;;;;6.40;3.20;;;10.10;99.90;;;;;;5044508;28;20202;-81
2022/02/09 17:58:45;;;;;;;4.23;3.07;;;10.00;99.90;;;;;;5052959;28;20204;-81
2022/02/09 18:01:20;;;;;;;5.37;3.10;;;10.00;99.90;;;;;;5026552;28;20201;-81
2022/02/09 18:08:37;;;;;;;4.43;2.73;;;9.30;99.90;;;;;;4963232;28;20232;-83
2022/02/09 18:11:56;;;;;;;4.07;2.77;;;10.20;99.90;;;;;;4951901;28;20374;-81
2022/02/09 19:43:01;;;;;;;3.00;1.60;;;9.80;99.90;;;;;;4926238;29;20723;-80
2022/02/09 19:45:45;;;;;;;3.30;1.70;;;9.80;99.90;;;;;;4932276;29;20219;-78
2022/02/09 19:48:32;;;;;;;2.87;1.70;;;9.80;99.90;;;;;;4915905;29;20209;-79
2022/02/09 19:51:12;;;;;;;3.93;1.33;;;9.80;99.90;;;;;;4916886;29;20684;-78
2022/02/09 19:53:55;;;;;;;2.17;1.50;;;9.70;99.90;;;;;;4941936;28;20674;-80
2022/02/09 19:56:36;;;;;;;4.57;1.43;;;9.80;99.90;;;;;;4950069;28;20316;-79
2022/02/09 19:59:19;;;;;;;2.77;1.57;;;9.80;99.90;;;;;;4954058;28;20671;-79
2022/02/09 20:01:50;;;;;;;3.53;1.23;;;9.80;99.90;;;;;;5003708;28;20298;-79
2022/02/09 20:04:25;;;;;;;5.53;1.90;;;9.90;99.90;;;;;;5030655;28;20660;-79
2022/02/09 20:06:52;;;;;;;5.47;1.80;;;10.10;99.90;;;;;;5014308;28;20283;-80
2022/02/09 20:09:24;;;;;;;6.33;1.57;;;9.80;99.90;;;;;;5032417;28;20205;-79
2022/02/09 20:11:51;;;;;;;2.00;1.40;;;9.80;99.90;;;;;;5014021;28;20241;-79
2022/02/09 20:14:20;;;;;;;3.30;1.27;;;9.80;99.90;;;;;;5013531;28;20219;-78
2022/02/09 20:16:51;;;;;;;1.80;1.23;;;9.80;99.90;;;;;;5017634;28;20209;-79
2022/02/09 20:19:18;;;;;;;3.40;1.40;;;9.80;99.90;;;;;;5013741;28;20241;-79
2022/02/09 20:21:49;;;;;;;1.67;1.10;;;9.60;99.90;;;;;;5014644;28;20669;-79
2022/02/09 20:24:25;;;;;;;2.67;1.07;;;9.80;99.90;;;;;;5014262;28;20270;-79
2022/02/09 20:27:04;;;;;;;6.70;1.60;;;9.80;99.90;;;;;;5030939;28;20208;-79
2022/02/09 20:29:42;;;;;;;3.13;1.53;;;9.90;99.90;;;;;;5030973;28;20289;-80
2022/02/09 20:32:19;;;;;;;1.73;1.53;;;9.80;99.90;;;;;;5013927;28;20210;-80
2022/02/09 20:35:05;;;;;;;2.60;1.50;;;9.90;99.90;;;;;;5013472;28;20307;-79
2022/02/09 20:37:42;;;;;;;3.93;1.57;;;9.90;99.90;;;;;;5011149;28;20681;-79
2022/02/09 20:40:22;;;;;;;5.03;1.70;;;9.80;99.90;;;;;;5013000;28;20977;-79
2022/02/09 20:43:02;;;;;;;2.63;1.43;;;9.80;99.90;;;;;;5032525;28;20201;-78
2022/02/09 20:45:47;;;;;;;2.63;1.40;;;9.80;99.90;;;;;;5013325;28;20684;-80
2022/02/09 20:48:23;;;;;;;4.03;1.80;;;10.40;99.90;;;;;;4995373;28;20677;-79
2022/02/09 20:51:01;;;;;;;4.57;1.53;;;9.80;99.90;;;;;;5012591;28;20762;-79
2022/02/09 20:53:29;;;;;;;2.20;1.37;;;9.70;99.90;;;;;;5031565;28;20533;-79
2022/02/09 20:55:58;;;;;;;4.17;1.57;;;9.70;99.90;;;;;;5012581;28;20673;-79
2022/02/09 20:58:40;;;;;;;3.07;1.07;;;9.70;99.90;;;;;;5012958;28;20205;-79
2022/02/09 21:01:12;;;;;;;1.30;1.00;;;9.70;99.90;;;;;;5013468;28;20200;-78
2022/02/09 21:03:47;;;;;;;3.53;1.40;;;9.60;99.90;;;;;;5010401;28;20656;-79
2022/02/09 21:06:56;;;;;;;4.43;1.37;;;9.60;99.90;;;;;;5013489;28;20740;-80
2022/02/09 21:09:38;;;;;;;5.30;1.70;;;9.60;99.90;;;;;;5025852;28;20669;-79
2022/02/09 21:12:24;;;;;;;3.80;1.57;;;9.20;99.90;;;;;;5031517;28;20707;-80
2022/02/09 21:18:09;;;;;;;2.60;1.50;;;9.60;99.90;;;;;;5030494;28;20705;-78
2022/02/09 21:53:28;;;;;;;2.17;1.07;;;8.30;99.90;;;;;;5027702;28;20228;-79
2022/02/09 21:56:25;;;;;;;3.43;1.40;;;9.10;99.90;;;;;;5028802;28;20218;-79
2022/02/09 21:59:16;;;;;;;5.93;1.77;;;9.20;99.90;;;;;;5023782;28;20202;-79
2022/02/09 22:27:20;;;;;;;6.77;1.40;;;9.00;99.90;;;;;;5027638;28;20197;-79
2022/02/09 22:50:12;;;;;;;6.80;1.50;;;9.00;99.90;;;;;;5008564;28;20494;-80
2022/02/09 22:55:44;;;;;;;4.70;1.37;;;9.00;99.90;;;;;;5048466;28;20190;-79
2022/02/09 22:58:14;;;;;;;3.77;1.30;;;8.90;99.90;;;;;;5031117;28;20540;-79
2022/02/09 23:00:53;;;;;;;5.97;1.23;;;8.90;99.90;;;;;;5041231;28;20565;-79
2022/02/09 23:03:28;;;;;;;5.97;1.27;;;8.90;99.90;;;;;;5048121;28;20283;-80
2022/02/09 23:09:16;;;;;;;3.90;1.43;;;8.90;99.90;;;;;;5038844;28;20543;-80
2022/02/09 23:12:01;;;;;;;2.07;0.90;;;9.00;99.90;;;;;;5052736;28;20301;-79
2022/02/09 23:14:50;;;;;;;0.70;0.67;;;8.90;99.90;;;;;;5029234;28;20299;-79
